Time;durP1;ratioP1;P1;durP2;ratioP2;P2;SDS_P1;SDS_P2;PMS_P1;PMS_P2;Temp;Humidity;BMP_temperature;BMP_pressure;BME280_temperature;BME280_humidity;BME280_pressure;Samples;Min_cycle;Max_cycle;Signal;HPM_P1;HPM_P2
2022/09/29 00:00:12;;;;;;;;;;;;;;;7.34;100.00;99920.16;5003438;28;20533;-42
2022/09/29 00:02:38;;;;;;;;;;;;;;;7.32;100.00;99922.16;5000933;28;19917;-43
2022/09/29 00:05:04;;;;;;;;;;;;;;;7.31;100.00;99922.31;4997024;28;19930;-44
2022/09/29 00:07:31;;;;;;;;;;;;;;;7.28;100.00;99920.81;5000971;28;19948;-41
2022/09/29 00:09:56;;;;;;;;;;;;;;;7.22;100.00;99916.97;5015735;28;19959;-42
2022/09/29 00:12:21;;;;;;;;;;;;;;;7.21;100.00;99923.31;5006045;28;19956;-43
2022/09/29 00:14:46;;;;;;;;;;;;;;;7.19;100.00;99925.28;5004371;28;20335;-42
2022/09/29 00:17:12;;;;;;;;;;;;;;;7.16;100.00;99925.63;5005872;28;20357;-43
2022/09/29 00:19:38;;;;;;;;;;;;;;;7.15;100.00;99915.16;5009130;28;20407;-42
2022/09/29 00:22:03;;;;;;;;;;;;;;;7.13;100.00;99915.31;5009211;28;19943;-41
2022/09/29 00:24:30;;;;;;;;;;;;;;;7.12;100.00;99916.28;5000609;28;20012;-44
2022/09/29 00:26:55;;;;;;;;;;;;;;;7.10;100.00;99918.28;5009641;28;19940;-41
2022/09/29 00:29:20;;;;;;;;;;;;;;;7.09;100.00;99917.47;4998230;28;19921;-41
2022/09/29 00:31:45;;;;;;;;;;;;;;;7.07;100.00;99914.13;4997245;28;19917;-41
2022/09/29 00:34:11;;;;;;;;;;;;;;;7.07;100.00;99924.72;5004925;28;20336;-42
2022/09/29 00:36:37;;;;;;;;;;;;;;;7.02;100.00;99916.41;5000549;28;19940;-40
2022/09/29 00:39:02;;;;;;;;;;;;;;;7.00;100.00;99913.09;4997520;28;19924;-41
2022/09/29 00:41:29;;;;;;;;;;;;;;;6.97;100.00;99909.94;4997628;28;20193;-41
2022/09/29 00:43:59;;;;;;;;;;;;;;;6.98;100.00;99917.75;5001110;28;20205;-43
2022/09/29 00:46:30;;;;;;;;;;;;;;;6.96;100.00;99918.88;5012954;28;19928;-40
2022/09/29 00:48:58;;;;;;;;;;;;;;;6.93;100.00;99914.75;5003052;28;19924;-44
2022/09/29 00:51:23;;;;;;;;;;;;;;;6.88;100.00;99920.53;5015092;28;19998;-41
2022/09/29 00:53:49;;;;;;;;;;;;;;;6.85;100.00;99920.00;5006877;28;20372;-41
2022/09/29 00:56:16;;;;;;;;;;;;;;;6.81;100.00;99911.53;5003266;28;19928;-43
2022/09/29 00:58:41;;;;;;;;;;;;;;;6.82;100.00;99912.38;5002112;28;20185;-45
2022/09/29 01:01:06;;;;;;;;;;;;;;;6.78;100.00;99911.03;5009673;28;19917;-41
2022/09/29 01:03:34;;;;;;;;;;;;;;;6.79;100.00;99912.69;5010215;28;19928;-43
2022/09/29 01:06:11;;;;;;;;;;;;;;;6.77;100.00;99912.88;5001596;28;19929;-42
2022/09/29 01:08:46;;;;;;;;;;;;;;;6.73;100.00;99909.69;5002552;28;20364;-41
2022/09/29 01:11:11;;;;;;;;;;;;;;;6.72;100.00;99905.38;5000242;28;20021;-42
2022/09/29 01:13:37;;;;;;;;;;;;;;;6.71;100.00;99905.53;5016578;28;20227;-42
2022/09/29 01:16:02;;;;;;;;;;;;;;;6.69;100.00;99904.88;5009927;28;19925;-42
2022/09/29 01:18:29;;;;;;;;;;;;;;;6.67;100.00;99902.38;5002381;28;20194;-43
2022/09/29 01:21:10;;;;;;;;;;;;;;;6.64;100.00;99902.69;4999458;28;20318;-40
2022/09/29 01:23:35;;;;;;;;;;;;;;;6.63;100.00;99908.97;5012835;28;19952;-42
2022/09/29 01:26:03;;;;;;;;;;;;;;;6.60;100.00;99904.00;5015187;28;19979;-40
2022/09/29 01:28:47;;;;;;;;;;;;;;;6.60;100.00;99905.81;5016415;28;20024;-40
2022/09/29 01:31:18;;;;;;;;;;;;;;;6.57;100.00;99908.78;5010088;28;19924;-41
2022/09/29 01:33:52;;;;;;;;;;;;;;;6.54;100.00;99905.44;5006580;28;19939;-42
2022/09/29 01:36:36;;;;;;;;;;;;;;;6.55;100.00;99914.22;5019030;28;19956;-42
2022/09/29 01:39:18;;;;;;;;;;;;;;;6.51;100.00;99905.75;5010757;28;20280;-42
2022/09/29 01:41:43;;;;;;;;;;;;;;;6.54;100.00;99907.28;5012339;28;19920;-43
2022/09/29 01:44:08;;;;;;;;;;;;;;;6.50;100.00;99912.06;5019403;28;19928;-41
2022/09/29 01:46:37;;;;;;;;;;;;;;;6.48;100.00;99907.91;5009259;28;19921;-42
2022/09/29 01:49:03;;;;;;;;;;;;;;;6.50;100.00;99908.56;5014142;28;19917;-42
2022/09/29 01:51:37;;;;;;;;;;;;;;;6.49;100.00;99918.34;5018584;28;19917;-45
2022/09/29 01:54:07;;;;;;;;;;;;;;;6.49;100.00;99909.56;5019527;28;19917;-42
2022/09/29 01:56:51;;;;;;;;;;;;;;;6.47;100.00;99917.69;5015587;28;19928;-43
2022/09/29 01:59:19;;;;;;;;;;;;;;;6.47;100.00;99917.69;5013363;28;19917;-41
2022/09/29 02:01:46;;;;;;;;;;;;;;;6.48;100.00;99914.06;5026907;28;20163;-41
2022/09/29 02:04:21;;;;;;;;;;;;;;;6.50;100.00;99914.72;5012764;28;20379;-42
2022/09/29 02:06:53;;;;;;;;;;;;;;;6.50;100.00;99911.22;5016739;28;20736;-41
2022/09/29 02:09:20;;;;;;;;;;;;;;;6.48;100.00;99908.75;5017725;28;19963;-42
2022/09/29 02:11:45;;;;;;;;;;;;;;;6.47;100.00;99914.22;5016038;28;19949;-41
2022/09/29 02:14:13;;;;;;;;;;;;;;;6.42;100.00;99904.06;5016802;28;20018;-41
2022/09/29 02:16:44;;;;;;;;;;;;;;;6.40;100.00;99913.16;5012391;28;19922;-41
2022/09/29 02:19:15;;;;;;;;;;;;;;;6.37;100.00;99909.00;5013526;28;19960;-43
2022/09/29 02:21:41;;;;;;;;;;;;;;;6.34;100.00;99910.13;5014290;28;19929;-45
2022/09/29 02:24:06;;;;;;;;;;;;;;;6.34;100.00;99914.63;5013281;28;19921;-41
2022/09/29 02:26:33;;;;;;;;;;;;;;;6.33;100.00;99918.25;5014555;28;19968;-40
2022/09/29 02:28:59;;;;;;;;;;;;;;;6.29;100.00;99911.59;5013922;28;20224;-40
2022/09/29 02:31:25;;;;;;;;;;;;;;;6.29;100.00;99915.09;5016159;28;20409;-41
2022/09/29 02:33:50;;;;;;;;;;;;;;;6.28;100.00;99918.75;5015233;28;20007;-40
2022/09/29 02:36:32;;;;;;;;;;;;;;;6.26;100.00;99920.72;5010050;28;19925;-42
2022/09/29 02:38:57;;;;;;;;;;;;;;;6.24;100.00;99929.81;5010566;28;19940;-40
2022/09/29 02:41:26;;;;;;;;;;;;;;;6.23;100.00;99921.03;5012924;28;19925;-43
2022/09/29 02:44:11;;;;;;;;;;;;;;;6.23;100.00;99917.53;5007767;28;20070;-40
2022/09/29 02:46:47;;;;;;;;;;;;;;;6.20;100.00;99916.03;5005906;28;20404;-42
2022/09/29 02:49:38;;;;;;;;;;;;;;;6.16;100.00;99922.63;5002902;28;20244;-41
2022/09/29 02:52:19;;;;;;;;;;;;;;;6.12;100.00;99916.78;5005633;28;19921;-41
2022/09/29 02:54:47;;;;;;;;;;;;;;;6.12;100.00;99916.78;5017336;28;19940;-40
2022/09/29 02:57:18;;;;;;;;;;;;;;;6.11;100.00;99919.59;5015845;28;19922;-41
2022/09/29 02:59:53;;;;;;;;;;;;;;;6.11;100.00;99917.81;5017594;28;20787;-41
2022/09/29 03:02:25;;;;;;;;;;;;;;;6.10;100.00;99920.59;5014302;28;20405;-42
2022/09/29 03:04:51;;;;;;;;;;;;;;;6.07;100.00;99924.38;5013008;28;20015;-40
2022/09/29 03:07:16;;;;;;;;;;;;;;;6.05;100.00;99921.06;5011668;28;20380;-42
2022/09/29 03:09:41;;;;;;;;;;;;;;;6.04;100.00;99921.22;5016542;28;19960;-42
2022/09/29 03:12:06;;;;;;;;;;;;;;;5.99;100.00;99921.66;5016076;28;19913;-42
2022/09/29 03:14:31;;;;;;;;;;;;;;;5.97;100.00;99932.44;5019103;28;19986;-41
2022/09/29 03:16:57;;;;;;;;;;;;;;;5.96;100.00;99930.78;5011332;28;19927;-41
2022/09/29 03:19:22;;;;;;;;;;;;;;;5.90;100.00;99928.69;5015746;28;20356;-44
2022/09/29 03:21:47;;;;;;;;;;;;;;;5.89;100.00;99921.75;5016696;28;19951;-41
2022/09/29 03:24:13;;;;;;;;;;;;;;;5.87;100.00;99931.66;5006247;28;19917;-40
2022/09/29 03:26:38;;;;;;;;;;;;;;;5.84;100.00;99924.03;5015048;28;19928;-43
2022/09/29 03:29:03;;;;;;;;;;;;;;;5.83;100.00;99924.19;5016183;28;19924;-41
2022/09/29 03:31:28;;;;;;;;;;;;;;;5.82;100.00;99923.31;5005794;28;19917;-42
2022/09/29 03:33:53;;;;;;;;;;;;;;;5.77;100.00;99926.44;5008976;28;19975;-41
2022/09/29 03:36:18;;;;;;;;;;;;;;;5.75;100.00;99923.13;5016497;28;20028;-42
2022/09/29 03:38:45;;;;;;;;;;;;;;;5.73;100.00;99922.44;5015545;28;19932;-41
2022/09/29 03:41:11;;;;;;;;;;;;;;;5.72;100.00;99914.63;5015644;28;19976;-43
2022/09/29 03:43:36;;;;;;;;;;;;;;;5.70;100.00;99916.59;5017451;28;20619;-40
2022/09/29 03:46:01;;;;;;;;;;;;;;;5.68;100.00;99923.88;5009775;28;20021;-42
2022/09/29 03:48:30;;;;;;;;;;;;;;;5.67;100.00;99919.56;5015607;28;19964;-45
2022/09/29 03:50:55;;;;;;;;;;;;;;;5.63;100.00;99919.03;5005899;28;20004;-42
2022/09/29 03:53:21;;;;;;;;;;;;;;;5.61;100.00;99919.19;5012592;28;20298;-42
2022/09/29 03:55:47;;;;;;;;;;;;;;;5.58;100.00;99922.16;5011334;28;19932;-42
2022/09/29 03:58:12;;;;;;;;;;;;;;;5.57;100.00;99928.41;5014888;28;19932;-42
2022/09/29 04:00:37;;;;;;;;;;;;;;;5.57;100.00;99932.91;5010341;28;20249;-42
2022/09/29 04:03:03;;;;;;;;;;;;;;;5.56;100.00;99936.50;5013631;28;19955;-41
2022/09/29 04:05:28;;;;;;;;;;;;;;;5.55;100.00;99929.53;5010856;28;19925;-40
2022/09/29 04:07:53;;;;;;;;;;;;;;;5.53;100.00;99931.50;5014377;28;20177;-41
2022/09/29 04:10:19;;;;;;;;;;;;;;;5.49;100.00;99930.16;5007459;28;20303;-40
2022/09/29 04:12:44;;;;;;;;;;;;;;;5.47;100.00;99932.13;5014892;28;19925;-41
2022/09/29 04:15:09;;;;;;;;;;;;;;;5.44;100.00;99933.25;5016229;28;19921;-42
2022/09/29 04:17:34;;;;;;;;;;;;;;;5.41;100.00;99933.53;5015635;28;19928;-44
2022/09/29 04:19:59;;;;;;;;;;;;;;;5.41;100.00;99938.84;5008801;28;20426;-43
2022/09/29 04:22:25;;;;;;;;;;;;;;;5.42;100.00;99940.53;5004411;28;19947;-40
2022/09/29 04:24:50;;;;;;;;;;;;;;;5.41;100.00;99942.34;5014973;28;19943;-41
2022/09/29 04:27:16;;;;;;;;;;;;;;;5.41;100.00;99942.34;5013821;28;20243;-40
2022/09/29 04:29:41;;;;;;;;;;;;;;;5.42;100.00;99949.28;5011109;28;19917;-41
2022/09/29 04:32:07;;;;;;;;;;;;;;;5.42;100.00;99945.81;5016198;28;20343;-42
2022/09/29 04:34:33;;;;;;;;;;;;;;;5.42;100.00;99945.81;5006803;28;19914;-41
2022/09/29 04:36:58;;;;;;;;;;;;;;;5.42;100.00;99948.47;5005053;28;20070;-40
2022/09/29 04:39:23;;;;;;;;;;;;;;;5.42;100.00;99943.16;5002852;28;19943;-40
2022/09/29 04:41:48;;;;;;;;;;;;;;;5.43;100.00;99947.47;5015521;28;19917;-41
2022/09/29 04:44:14;;;;;;;;;;;;;;;5.38;100.00;99952.38;5014694;28;20090;-43
2022/09/29 04:46:39;;;;;;;;;;;;;;;5.35;100.00;99947.41;5009972;28;19927;-42
2022/09/29 04:49:04;;;;;;;;;;;;;;;5.32;100.00;99956.47;5010341;28;19921;-42
2022/09/29 04:51:29;;;;;;;;;;;;;;;5.30;100.00;99955.78;5022309;28;19917;-46
2022/09/29 04:53:56;;;;;;;;;;;;;;;5.28;100.00;99952.47;5015309;28;20169;-42
2022/09/29 04:56:21;;;;;;;;;;;;;;;5.29;100.00;99961.22;5013936;28;19982;-41
2022/09/29 04:58:46;;;;;;;;;;;;;;;5.28;100.00;99962.19;5016211;28;19921;-44
2022/09/29 05:01:12;;;;;;;;;;;;;;;5.26;100.00;99965.03;5007158;28;20491;-40
2022/09/29 05:03:38;;;;;;;;;;;;;;;5.23;100.00;99958.19;5014681;28;19917;-41
2022/09/29 05:06:03;;;;;;;;;;;;;;;5.22;100.00;99964.47;5015632;28;19917;-41
2022/09/29 05:08:28;;;;;;;;;;;;;;;5.22;100.00;99963.63;5011131;28;20325;-43
2022/09/29 05:10:53;;;;;;;;;;;;;;;5.20;100.00;99969.06;5013599;28;19921;-41
2022/09/29 05:13:18;;;;;;;;;;;;;;;5.17;100.00;99971.19;5013247;28;19917;-40
2022/09/29 05:15:44;;;;;;;;;;;;;;;5.15;100.00;99966.03;5007781;28;19963;-40
2022/09/29 05:18:09;;;;;;;;;;;;;;;5.12;100.00;99976.91;5015560;28;20288;-43
2022/09/29 05:20:34;;;;;;;;;;;;;;;5.11;100.00;99971.75;5014440;28;20418;-41
2022/09/29 05:22:59;;;;;;;;;;;;;;;5.11;100.00;99983.22;5013315;28;19921;-42
2022/09/29 05:25:26;;;;;;;;;;;;;;;5.11;100.00;99977.91;5010965;28;19996;-41
2022/09/29 05:27:51;;;;;;;;;;;;;;;5.11;100.00;99982.34;5017286;28;19951;-41
2022/09/29 05:30:16;;;;;;;;;;;;;;;5.08;100.00;99980.84;5024660;28;19913;-44
2022/09/29 05:32:43;;;;;;;;;;;;;;;5.07;100.00;99988.94;5019875;28;19918;-41
2022/09/29 05:35:08;;;;;;;;;;;;;;;5.05;100.00;99994.38;5016135;28;20159;-42
2022/09/29 05:37:33;;;;;;;;;;;;;;;5.03;100.00;99989.22;5028310;28;19929;-42
2022/09/29 05:39:59;;;;;;;;;;;;;;;5.02;100.00;99995.50;5007369;28;20394;-42
2022/09/29 05:42:24;;;;;;;;;;;;;;;5.01;100.00;99993.84;5014184;28;19948;-41
2022/09/29 05:44:50;;;;;;;;;;;;;;;5.03;100.00;100004.28;5016419;28;20009;-40
2022/09/29 05:47:15;;;;;;;;;;;;;;;5.02;100.00;100003.44;5004793;28;19937;-42
2022/09/29 05:49:41;;;;;;;;;;;;;;;5.02;100.00;100006.09;5013434;28;19922;-42
2022/09/29 05:52:06;;;;;;;;;;;;;;;5.00;100.00;100002.75;5012812;28;20435;-41
2022/09/29 05:54:31;;;;;;;;;;;;;;;5.01;100.00;100008.88;5005293;28;19963;-42
2022/09/29 05:56:56;;;;;;;;;;;;;;;5.01;100.00;100004.41;5000984;28;19924;-43
2022/09/29 05:59:22;;;;;;;;;;;;;;;5.01;100.00;100012.34;5015052;28;19925;-43
2022/09/29 06:01:47;;;;;;;;;;;;;;;5.01;100.00;100012.34;5014304;28;19927;-42
2022/09/29 06:04:12;;;;;;;;;;;;;;;5.02;100.00;100015.81;5012574;28;20115;-41
2022/09/29 06:06:39;;;;;;;;;;;;;;;5.04;100.00;100003.28;5008206;28;19952;-42
2022/09/29 06:09:05;;;;;;;;;;;;;;;5.05;100.00;100010.25;5014930;28;19917;-41
2022/09/29 06:11:30;;;;;;;;;;;;;;;5.06;100.00;100017.22;5009951;28;20336;-43
2022/09/29 06:13:56;;;;;;;;;;;;;;;5.07;100.00;100018.88;5011861;28;19916;-42
2022/09/29 06:16:22;;;;;;;;;;;;;;;5.07;100.00;100025.97;5011379;28;19924;-42
2022/09/29 06:18:48;;;;;;;;;;;;;;;5.08;100.00;100022.38;5018466;28;19955;-41
2022/09/29 06:21:17;;;;;;;;;;;;;;;5.09;100.00;100027.53;5018192;28;20028;-43
2022/09/29 06:23:43;;;;;;;;;;;;;;;5.11;100.00;100025.56;5018621;28;20376;-43
2022/09/29 06:26:09;;;;;;;;;;;;;;;5.12;100.00;100024.56;5016847;28;20730;-43
2022/09/29 06:28:35;;;;;;;;;;;;;;;5.14;100.00;100033.22;5016749;28;19917;-42
2022/09/29 06:31:04;;;;;;;;;;;;;;;5.15;100.00;100034.84;5018348;28;19924;-42
2022/09/29 06:33:31;;;;;;;;;;;;;;;5.18;100.00;100037.22;5026527;28;19937;-43
2022/09/29 06:38:41;;;;;;;;;;;;;;;5.26;100.00;100039.16;5018467;28;20290;-43
2022/09/29 06:41:06;;;;;;;;;;;;;;;5.25;100.00;100042.75;5016883;28;19956;-40
2022/09/29 06:43:31;;;;;;;;;;;;;;;5.27;100.00;100042.63;5018345;28;19927;-42
2022/09/29 06:45:57;;;;;;;;;;;;;;;5.29;100.00;100046.78;5016990;28;19974;-39
2022/09/29 06:48:22;;;;;;;;;;;;;;;5.34;100.00;100054.28;5016864;28;19913;-40
2022/09/29 06:50:47;;;;;;;;;;;;;;;5.35;100.00;100061.25;5016980;28;20103;-42
2022/09/29 06:53:13;;;;;;;;;;;;;;;5.33;100.00;100058.75;5018205;28;20202;-42
2022/09/29 06:55:38;;;;;;;;;;;;;;;5.34;100.00;100056.94;5018913;28;19956;-42
2022/09/29 06:58:03;;;;;;;;;;;;;;;5.36;100.00;100061.13;5016746;28;19928;-41
2022/09/29 07:00:29;;;;;;;;;;;;;;;5.42;100.00;100062.34;5017323;28;19917;-42
2022/09/29 07:02:54;;;;;;;;;;;;;;;5.46;100.00;100068.16;5017241;28;20451;-41
2022/09/29 07:05:19;;;;;;;;;;;;;;;5.52;100.00;100063.13;5017369;28;20019;-42
2022/09/29 07:07:47;;;;;;;;;;;;;;;5.58;100.00;100065.19;5007158;28;19924;-40
2022/09/29 07:10:12;;;;;;;;;;;;;;;5.66;100.00;100074.19;5016296;28;19963;-41
2022/09/29 07:12:37;;;;;;;;;;;;;;;5.76;100.00;100077.63;5016794;28;20051;-41
2022/09/29 07:15:02;;;;;;;;;;;;;;;5.87;100.00;100076.56;5018321;28;20380;-41
2022/09/29 07:17:28;;;;;;;;;;;;;;;5.95;100.00;100077.47;5017103;28;19925;-44
2022/09/29 07:19:54;;;;;;;;;;;;;;;6.10;100.00;100080.47;5015275;28;20490;-41
2022/09/29 07:22:20;;;;;;;;;;;;;;;6.26;100.00;100084.25;5016613;28;19909;-41
2022/09/29 07:24:46;;;;;;;;;;;;;;;6.41;100.00;100089.88;5017266;28;19913;-41
2022/09/29 07:27:12;;;;;;;;;;;;;;;6.53;100.00;100089.50;5004496;28;19983;-42
2022/09/29 07:29:37;;;;;;;;;;;;;;;6.66;100.00;100077.66;5013830;28;20008;-42
2022/09/29 07:32:02;;;;;;;;;;;;;;;6.79;100.00;100074.56;5015218;28;20493;-43
2022/09/29 07:34:27;;;;;;;;;;;;;;;6.89;100.00;100086.75;5016230;28;20521;-40
2022/09/29 07:36:52;;;;;;;;;;;;;;;6.94;100.00;100083.63;5015479;28;19952;-40
2022/09/29 07:39:19;;;;;;;;;;;;;;;7.07;100.00;100084.03;5017928;28;19942;-38
2022/09/29 07:41:44;;;;;;;;;;;;;;;7.22;100.00;100091.44;5016339;28;19955;-39
2022/09/29 07:44:10;;;;;;;;;;;;;;;7.36;100.00;100082.03;5017649;28;19921;-38
2022/09/29 07:46:35;;;;;;;;;;;;;;;7.47;100.00;100100.38;5017837;28;20421;-38
2022/09/29 07:49:00;;;;;;;;;;;;;;;7.63;100.00;100100.41;5016690;28;19917;-38
2022/09/29 07:51:26;;;;;;;;;;;;;;;7.74;100.00;100101.09;5016337;28;20020;-38
2022/09/29 07:53:51;;;;;;;;;;;;;;;7.84;100.00;100099.16;5016055;28;20046;-38
2022/09/29 07:56:18;;;;;;;;;;;;;;;7.93;100.00;100100.03;5016542;28;20422;-38
2022/09/29 07:58:44;;;;;;;;;;;;;;;8.06;100.00;100113.66;5016886;28;19917;-38
2022/09/29 08:01:11;;;;;;;;;;;;;;;8.19;100.00;100107.88;5016765;28;20371;-39
2022/09/29 08:03:39;;;;;;;;;;;;;;;8.28;100.00;100117.56;5014723;28;20179;-38
2022/09/29 08:06:05;;;;;;;;;;;;;;;8.36;100.00;100119.38;5014586;28;20395;-39
2022/09/29 08:08:31;;;;;;;;;;;;;;;8.43;100.00;100120.41;5017225;28;19964;-39
2022/09/29 08:11:03;;;;;;;;;;;;;;;8.52;100.00;100124.75;5015642;28;19967;-39
2022/09/29 08:13:30;;;;;;;;;;;;;;;8.62;100.00;100126.41;5017016;28;19924;-39
2022/09/29 08:15:58;;;;;;;;;;;;;;;8.68;100.00;100128.41;5016698;28;19929;-39
2022/09/29 08:18:24;;;;;;;;;;;;;;;8.84;100.00;100132.91;5016002;28;19921;-38
2022/09/29 08:20:49;;;;;;;;;;;;;;;8.95;100.00;100125.41;5004611;28;19936;-39
2022/09/29 08:23:15;;;;;;;;;;;;;;;9.04;100.00;100131.53;5017162;28;20340;-38
2022/09/29 08:25:41;;;;;;;;;;;;;;;9.10;100.00;100133.53;5017224;28;19967;-38
2022/09/29 08:28:06;;;;;;;;;;;;;;;9.20;100.00;100135.16;5014717;28;20319;-39
2022/09/29 08:30:31;;;;;;;;;;;;;;;9.34;100.00;100145.97;5017127;28;19925;-39
2022/09/29 08:32:56;;;;;;;;;;;;;;;9.46;100.00;100148.28;5015857;28;19948;-39
2022/09/29 08:35:22;;;;;;;;;;;;;;;9.60;100.00;100139.56;5016385;28;19924;-39
2022/09/29 08:37:47;;;;;;;;;;;;;;;9.68;100.00;100141.38;5015195;28;19967;-39
2022/09/29 08:40:13;;;;;;;;;;;;;;;9.85;100.00;100150.16;5016411;28;20148;-39
2022/09/29 08:42:47;;;;;;;;;;;;;;;9.98;100.00;100158.41;5015031;28;20279;-39
2022/09/29 08:45:15;;;;;;;;;;;;;;;10.05;100.00;100161.22;5016298;28;20330;-39
2022/09/29 08:47:46;;;;;;;;;;;;;;;10.21;100.00;100155.78;5016609;28;19913;-39
2022/09/29 08:50:14;;;;;;;;;;;;;;;10.38;100.00;100156.53;5014856;28;19929;-39
2022/09/29 08:52:43;;;;;;;;;;;;;;;10.43;100.00;100156.03;5016590;28;20003;-39
2022/09/29 08:55:12;;;;;;;;;;;;;;;10.50;100.00;100158.81;5016758;28;19948;-39
2022/09/29 08:57:37;;;;;;;;;;;;;;;10.65;100.00;100170.38;5012457;28;19975;-40
2022/09/29 09:00:03;;;;;;;;;;;;;;;10.75;100.00;100170.97;5016677;28;20330;-40
2022/09/29 09:02:31;;;;;;;;;;;;;;;10.85;100.00;100165.41;5016231;28;20016;-39
2022/09/29 09:05:02;;;;;;;;;;;;;;;10.98;100.00;100170.97;5014536;28;20371;-39
2022/09/29 09:07:27;;;;;;;;;;;;;;;11.10;100.00;100170.50;5016544;28;20245;-39
2022/09/29 09:10:13;;;;;;;;;;;;;;;11.18;100.00;100173.97;5017030;28;20372;-39
2022/09/29 09:12:46;;;;;;;;;;;;;;;11.34;100.00;100172.97;5018481;28;20292;-40
2022/09/29 09:15:43;;;;;;;;;;;;;;;11.51;100.00;100178.16;5019403;28;19917;-40
2022/09/29 09:18:14;;;;;;;;;;;;;;;11.60;100.00;100174.34;5008412;28;19918;-40
2022/09/29 09:20:49;;;;;;;;;;;;;;;11.83;100.00;100176.09;5017198;28;19921;-39
2022/09/29 09:23:19;;;;;;;;;;;;;;;11.98;100.00;100184.97;5020235;28;20565;-40
2022/09/29 09:25:48;;;;;;;;;;;;;;;12.04;100.00;100178.06;5019784;28;19925;-39
2022/09/29 09:28:31;;;;;;;;;;;;;;;12.03;100.00;100177.22;5019551;28;20098;-40
2022/09/29 09:31:00;;;;;;;;;;;;;;;12.15;100.00;100182.09;5017728;28;19924;-41
2022/09/29 09:33:29;;;;;;;;;;;;;;;12.27;100.00;100178.75;5018992;28;20019;-41
2022/09/29 09:36:01;;;;;;;;;;;;;;;12.35;100.00;100183.13;5019468;28;19959;-41
2022/09/29 09:38:39;;;;;;;;;;;;;;;12.45;100.00;100182.84;5018749;28;20027;-38
2022/09/29 09:41:06;;;;;;;;;;;;;;;12.53;100.00;100177.38;5017715;28;20644;-39
2022/09/29 09:43:47;;;;;;;;;;;;;;;12.62;100.00;100186.09;5020124;28;19983;-40
2022/09/29 09:46:17;;;;;;;;;;;;;;;12.83;100.00;100194.16;5016170;28;19948;-40
2022/09/29 09:48:45;;;;;;;;;;;;;;;12.98;100.00;100183.38;5019632;28;20474;-39
2022/09/29 09:51:20;;;;;;;;;;;;;;;13.04;100.00;100187.94;5018778;28;19921;-40
2022/09/29 09:53:47;;;;;;;;;;;;;;;13.12;100.00;100183.44;5020303;28;19964;-42
2022/09/29 09:56:15;;;;;;;;;;;;;;;13.16;100.00;100196.28;5018054;28;19981;-40
2022/09/29 09:58:59;;;;;;;;;;;;;;;13.19;100.00;100192.41;5019364;28;19996;-40
2022/09/29 10:01:24;;;;;;;;;;;;;;;13.37;100.00;100194.59;5015070;28;19943;-40
2022/09/29 10:03:50;;;;;;;;;;;;;;;13.56;100.00;100199.28;5018010;28;20392;-39
2022/09/29 10:06:16;;;;;;;;;;;;;;;13.82;100.00;100194.28;5019022;28;19928;-40
2022/09/29 10:08:41;;;;;;;;;;;;;;;13.96;100.00;100198.69;5019732;28;20313;-41
2022/09/29 10:11:30;;;;;;;;;;;;;;;13.92;100.00;100198.25;5018307;28;20068;-40
2022/09/29 10:14:16;;;;;;;;;;;;;;;13.96;100.00;100204.06;5017542;28;20237;-41
2022/09/29 10:16:47;;;;;;;;;;;;;;;14.05;100.00;100194.78;5015658;28;20016;-41
2022/09/29 10:19:12;;;;;;;;;;;;;;;14.24;100.00;100195.91;5017755;28;19921;-40
2022/09/29 10:21:41;;;;;;;;;;;;;;;14.45;100.00;100207.56;5018072;28;19982;-40
2022/09/29 10:24:23;;;;;;;;;;;;;;;14.48;100.00;100205.28;5017704;28;19912;-40
2022/09/29 10:26:50;;;;;;;;;;;;;;;14.43;100.00;100204.25;5016123;28;20087;-40
2022/09/29 10:29:15;;;;;;;;;;;;;;;14.57;100.00;100205.09;5018718;28;19991;-40
2022/09/29 10:31:40;;;;;;;;;;;;;;;14.63;100.00;100207.84;5019104;28;19955;-44
2022/09/29 10:34:14;;;;;;;;;;;;;;;14.79;100.00;100217.38;5018159;28;19917;-41
2022/09/29 10:36:48;;;;;;;;;;;;;;;14.95;100.00;100220.69;5018578;28;19981;-39
2022/09/29 10:39:37;;;;;;;;;;;;;;;15.03;100.00;100217.81;5016356;28;20018;-42
2022/09/29 10:42:04;;;;;;;;;;;;;;;15.00;100.00;100220.91;5015853;28;20091;-41
2022/09/29 10:44:30;;;;;;;;;;;;;;;14.95;100.00;100226.06;5015619;28;20334;-42
2022/09/29 10:46:56;;;;;;;;;;;;;;;14.96;97.26;100225.88;5017417;28;20385;-40
2022/09/29 10:49:23;;;;;;;;;;;;;;;15.06;100.00;100223.59;5014907;28;19929;-43
2022/09/29 10:51:56;;;;;;;;;;;;;;;15.25;100.00;100226.50;5018283;28;20078;-42
2022/09/29 10:54:26;;;;;;;;;;;;;;;15.21;89.90;100223.41;5017934;28;19917;-40
2022/09/29 10:56:52;;;;;;;;;;;;;;;15.03;97.69;100217.81;5015653;28;20325;-42
2022/09/29 10:59:18;;;;;;;;;;;;;;;15.13;97.80;100228.16;5016837;28;19963;-40
2022/09/29 11:01:46;;;;;;;;;;;;;;;15.14;97.43;100222.59;5017533;28;19917;-42
2022/09/29 11:04:16;;;;;;;;;;;;;;;15.26;97.33;100220.94;5016544;28;19979;-42
2022/09/29 11:06:41;;;;;;;;;;;;;;;15.48;96.72;100216.16;5017176;28;20049;-43
2022/09/29 11:09:25;;;;;;;;;;;;;;;15.70;96.74;100215.06;5017281;28;20071;-42
2022/09/29 11:11:54;;;;;;;;;;;;;;;15.93;91.64;100220.84;5014600;28;20249;-42
2022/09/29 11:14:28;;;;;;;;;;;;;;;16.10;94.15;100226.59;5015675;28;19917;-44
2022/09/29 11:16:57;;;;;;;;;;;;;;;16.22;89.24;100222.22;5015985;28;20472;-42
2022/09/29 11:19:22;;;;;;;;;;;;;;;16.23;94.02;100223.03;5009095;28;19913;-41
2022/09/29 11:21:53;;;;;;;;;;;;;;;16.31;90.95;100219.25;5017242;28;19999;-44
2022/09/29 11:24:19;;;;;;;;;;;;;;;16.35;87.09;100231.28;5017371;28;19939;-42
2022/09/29 11:26:45;;;;;;;;;;;;;;;16.38;89.05;100231.66;5015908;28;20101;-40
2022/09/29 11:29:16;;;;;;;;;;;;;;;16.43;88.46;100225.63;5017006;28;19920;-42
2022/09/29 11:31:50;;;;;;;;;;;;;;;16.53;88.25;100233.25;5017100;28;20337;-42
2022/09/29 11:34:30;;;;;;;;;;;;;;;16.43;84.33;100231.03;5015406;28;19959;-43
2022/09/29 11:36:56;;;;;;;;;;;;;;;15.98;88.94;100231.00;5016026;28;20000;-45
2022/09/29 11:39:37;;;;;;;;;;;;;;;15.67;94.93;100232.47;5016285;28;20282;-40
2022/09/29 11:42:21;;;;;;;;;;;;;;;15.46;89.89;100230.84;5015575;28;20004;-41
2022/09/29 11:44:49;;;;;;;;;;;;;;;15.37;92.43;100234.78;5017009;28;19913;-41
2022/09/29 11:47:14;;;;;;;;;;;;;;;15.21;91.71;100239.56;5016281;28;19925;-41
2022/09/29 11:49:58;;;;;;;;;;;;;;;14.92;90.30;100238.91;5015812;28;19935;-42
2022/09/29 11:52:37;;;;;;;;;;;;;;;14.69;93.46;100235.75;5012755;28;19917;-43
2022/09/29 11:55:05;;;;;;;;;;;;;;;14.57;95.82;100231.97;5014951;28;20003;-40
2022/09/29 11:57:36;;;;;;;;;;;;;;;14.47;96.02;100235.03;5014597;28;19921;-42
2022/09/29 12:00:06;;;;;;;;;;;;;;;14.58;97.85;100239.84;5016465;28;20617;-41
2022/09/29 12:02:50;;;;;;;;;;;;;;;14.79;95.78;100240.75;5016561;28;19917;-42
2022/09/29 12:05:25;;;;;;;;;;;;;;;14.97;93.43;100251.75;5016200;28;19925;-44
2022/09/29 12:07:56;;;;;;;;;;;;;;;15.28;93.48;100245.75;5016135;28;19940;-43
2022/09/29 12:10:44;;;;;;;;;;;;;;;15.38;96.79;100247.22;5015922;28;20340;-41
2022/09/29 12:13:18;;;;;;;;;;;;;;;15.26;97.15;100247.00;5013750;28;20219;-40
2022/09/29 12:15:49;;;;;;;;;;;;;;;15.23;92.93;100245.53;5015227;28;20403;-40
2022/09/29 12:18:37;;;;;;;;;;;;;;;15.22;93.89;100246.59;5015110;28;20304;-42
2022/09/29 12:21:05;;;;;;;;;;;;;;;15.30;95.95;100245.56;5016060;28;20398;-41
2022/09/29 12:23:33;;;;;;;;;;;;;;;15.80;98.37;100245.97;5016794;28;19924;-44
2022/09/29 12:26:05;;;;;;;;;;;;;;;16.64;95.46;100248.75;5015470;28;19967;-40
2022/09/29 12:28:42;;;;;;;;;;;;;;;17.69;85.14;100255.47;5015672;28;20384;-42
2022/09/29 12:31:18;;;;;;;;;;;;;;;18.53;91.35;100249.56;5002189;28;19924;-42
2022/09/29 12:33:47;;;;;;;;;;;;;;;18.46;83.43;100246.94;5014804;28;19917;-43
2022/09/29 12:36:52;;;;;;;;;;;;;;;18.14;84.01;100244.41;5014896;28;20383;-42
2022/09/29 12:39:36;;;;;;;;;;;;;;;19.06;83.22;100246.13;5015522;28;20092;-42
2022/09/29 12:42:22;;;;;;;;;;;;;;;19.56;74.76;100247.59;5013425;28;20375;-42
2022/09/29 12:44:56;;;;;;;;;;;;;;;19.05;80.13;100246.38;5014500;28;20372;-40
2022/09/29 12:47:27;;;;;;;;;;;;;;;19.26;86.20;100245.78;5015360;28;20168;-42
2022/09/29 12:50:02;;;;;;;;;;;;;;;19.15;90.37;100246.63;5013580;28;20543;-41